createdAt,value
2023-01-19T00:01:50.874Z,97682.63
2023-01-19T00:04:21.761Z,97676.44
2023-01-19T00:06:52.141Z,97674.58
2023-01-19T00:09:22.884Z,97675.77
2023-01-19T00:11:52.091Z,97675.74
2023-01-19T00:14:23.292Z,97683.24
2023-01-19T00:16:52.255Z,97681.52
2023-01-19T00:19:21.392Z,97678.88
2023-01-19T00:21:53.053Z,97676.16
2023-01-19T00:24:23.617Z,97674.09
2023-01-19T00:26:53.999Z,97672.45
2023-01-19T00:29:24.282Z,97672.02
2023-01-19T00:31:54.714Z,97670.29
2023-01-19T00:34:24.997Z,97672.99
2023-01-19T00:36:55.458Z,97667.95
2023-01-19T00:39:26.244Z,97670.35
2023-01-19T00:42:14.077Z,97672.77
2023-01-19T00:44:44.503Z,97673.70
2023-01-19T00:47:15.150Z,97673.96
2023-01-19T00:49:45.456Z,97671.80
2023-01-19T00:52:15.810Z,97673.80
2023-01-19T00:54:46.904Z,97675.44
2023-01-19T00:57:18.866Z,97678.75
2023-01-19T00:59:49.316Z,97675.95
2023-01-19T01:02:19.852Z,97675.88
2023-01-19T01:04:54.513Z,97675.23
2023-01-19T01:07:25.065Z,97673.23
2023-01-19T01:09:56.465Z,97673.82
2023-01-19T01:12:26.970Z,97671.71
2023-01-19T01:14:57.632Z,97672.80
2023-01-19T01:17:27.949Z,97669.14
2023-01-19T01:19:58.877Z,97664.19
2023-01-19T01:22:29.520Z,97662.88
2023-01-19T01:25:00.191Z,97668.71
2023-01-19T01:27:30.476Z,97670.83
2023-01-19T01:30:00.822Z,97680.32
2023-01-19T01:32:31.730Z,97679.66
2023-01-19T01:35:02.044Z,97676.95
2023-01-19T01:37:32.770Z,97678.05
2023-01-19T01:40:03.685Z,97682.34
2023-01-19T01:42:35.014Z,97682.33
2023-01-19T01:45:08.215Z,97683.10
2023-01-19T01:47:43.653Z,97686.15
2023-01-19T01:50:16.660Z,97690.15
2023-01-19T01:53:06.412Z,97685.64
2023-01-19T01:55:40.870Z,97683.75
2023-01-19T01:58:12.506Z,97681.05
2023-01-19T02:01:00.651Z,97676.45
2023-01-19T02:03:33.148Z,97676.33
2023-01-19T02:06:07.800Z,97677.20
2023-01-19T02:08:59.946Z,97678.52
2023-01-19T02:11:48.586Z,97679.90
2023-01-19T02:14:19.225Z,97688.91
2023-01-19T02:16:49.848Z,97683.73
2023-01-19T02:19:26.130Z,97676.25
2023-01-19T02:22:01.519Z,97675.36
2023-01-19T02:24:32.386Z,97680.91
2023-01-19T02:27:03.194Z,97682.40
2023-01-19T02:29:34.439Z,97680.03
2023-01-19T02:32:06.552Z,97680.23
2023-01-19T02:34:37.163Z,97683.59
2023-01-19T02:37:11.662Z,97676.80
2023-01-19T02:39:45.126Z,97675.86
2023-01-19T02:42:18.355Z,97677.44
2023-01-19T02:44:50.949Z,97679.59
2023-01-19T02:47:21.532Z,97684.09
2023-01-19T02:49:58.174Z,97685.74
2023-01-19T02:52:29.577Z,97691.52
2023-01-19T02:55:01.575Z,97693.55
2023-01-19T02:57:47.728Z,97696.17
2023-01-19T03:00:26.343Z,97694.85
2023-01-19T03:03:09.415Z,97701.15
2023-01-19T03:05:54.248Z,97706.32
2023-01-19T03:08:34.024Z,97710.85
2023-01-19T03:11:06.501Z,97712.40
2023-01-19T03:13:45.024Z,97714.01
2023-01-19T03:16:19.187Z,97721.94
2023-01-19T03:18:54.859Z,97724.91
2023-01-19T03:21:29.108Z,97724.22
2023-01-19T03:24:03.549Z,97723.46
2023-01-19T03:26:37.716Z,97725.83
2023-01-19T03:29:09.727Z,97715.96
2023-01-19T03:31:41.144Z,97714.98
2023-01-19T03:34:14.008Z,97721.33
2023-01-19T03:36:46.875Z,97730.83
2023-01-19T03:39:20.771Z,97732.98
2023-01-19T03:41:53.754Z,97727.36
2023-01-19T03:44:24.378Z,97736.23
2023-01-19T03:46:55.044Z,97744.02
2023-01-19T03:49:25.945Z,97740.69
2023-01-19T03:51:58.604Z,97740.14
2023-01-19T03:54:29.297Z,97745.78
2023-01-19T03:56:59.751Z,97749.36
2023-01-19T03:59:30.390Z,97755.67
2023-01-19T04:02:01.081Z,97759.29
2023-01-19T04:04:31.792Z,97756.92
2023-01-19T04:07:02.515Z,97758.88
2023-01-19T04:09:33.881Z,97759.89
2023-01-19T04:12:07.678Z,97764.83
2023-01-19T04:14:38.700Z,97763.45
2023-01-19T04:17:10.124Z,97761.86
2023-01-19T04:19:40.787Z,97767.39
2023-01-19T04:22:11.621Z,97768.07
2023-01-19T04:24:42.456Z,97771.83
2023-01-19T04:27:15.281Z,97775.13
2023-01-19T04:29:46.823Z,97783.39
2023-01-19T04:32:18.081Z,97781.52
2023-01-19T04:34:49.100Z,97784.51
2023-01-19T04:37:20.883Z,97777.75
2023-01-19T04:39:51.942Z,97778.14
2023-01-19T04:42:22.905Z,97777.98
2023-01-19T04:44:53.821Z,97776.38
2023-01-19T04:47:24.481Z,97766.02
2023-01-19T04:49:55.170Z,97767.54
2023-01-19T04:52:26.453Z,97766.79
2023-01-19T04:54:57.029Z,97769.17
2023-01-19T04:57:27.765Z,97774.75
2023-01-19T04:59:58.631Z,97773.58
2023-01-19T05:02:31.606Z,97771.45
2023-01-19T05:05:03.019Z,97775.71
2023-01-19T05:07:33.368Z,97778.83
2023-01-19T05:10:03.895Z,97783.52
2023-01-19T05:12:34.767Z,97781.00
2023-01-19T05:15:10.682Z,97775.65
2023-01-19T05:17:41.342Z,97772.52
2023-01-19T05:20:16.271Z,97773.53
2023-01-19T05:22:50.918Z,97775.49
2023-01-19T05:25:22.043Z,97770.77
2023-01-19T05:27:51.087Z,97775.74
2023-01-19T05:30:22.334Z,97775.94
2023-01-19T05:32:52.815Z,97776.41
2023-01-19T05:35:35.322Z,97769.76
2023-01-19T05:38:06.862Z,97772.23
2023-01-19T05:40:37.348Z,97771.11
2023-01-19T05:43:08.359Z,97779.98
2023-01-19T05:45:39.206Z,97786.81
2023-01-19T05:48:10.483Z,97791.46
2023-01-19T05:50:41.537Z,97800.15
2023-01-19T05:53:13.694Z,97800.45
2023-01-19T05:55:44.764Z,97799.94
2023-01-19T05:58:15.295Z,97803.61
2023-01-19T06:00:45.733Z,97800.13
2023-01-19T06:03:16.135Z,97800.83
2023-01-19T06:05:46.587Z,97799.36
2023-01-19T06:08:17.386Z,97794.91
2023-01-19T06:10:48.414Z,97794.39
2023-01-19T06:13:19.429Z,97794.83
2023-01-19T06:15:50.047Z,97799.67
2023-01-19T06:18:20.525Z,97801.19
2023-01-19T06:20:52.251Z,97797.59
2023-01-19T06:23:22.895Z,97800.64
2023-01-19T06:25:53.431Z,97800.07
2023-01-19T06:28:24.247Z,97798.43
2023-01-19T06:30:56.076Z,97798.11
2023-01-19T06:33:28.034Z,97797.33
2023-01-19T06:35:58.636Z,97795.52
2023-01-19T06:38:28.315Z,97799.34
2023-01-19T06:40:59.448Z,97803.34
2023-01-19T06:43:31.017Z,97803.46
2023-01-19T06:46:02.129Z,97805.23
2023-01-19T06:48:32.640Z,97801.14
2023-01-19T06:51:03.351Z,97794.65
2023-01-19T06:53:33.748Z,97801.21
2023-01-19T06:56:04.842Z,97797.60
2023-01-19T06:58:36.019Z,97795.82
2023-01-19T07:01:07.864Z,97791.92
2023-01-19T07:03:38.752Z,97791.70
2023-01-19T07:06:09.983Z,97785.33
2023-01-19T07:08:40.736Z,97784.69
2023-01-19T07:11:25.879Z,97784.64
2023-01-19T07:14:03.827Z,97786.26
2023-01-19T07:16:34.212Z,97784.56
2023-01-19T07:19:04.740Z,97782.44
2023-01-19T07:21:35.362Z,97776.25
2023-01-19T07:24:06.269Z,97775.79
2023-01-19T07:26:36.731Z,97774.33
2023-01-19T07:29:07.646Z,97775.29
2023-01-19T07:31:38.106Z,97773.52
2023-01-19T07:34:08.380Z,97767.10
2023-01-19T07:36:39.130Z,97772.56
2023-01-19T07:39:10.009Z,97775.79
2023-01-19T07:41:40.989Z,97777.48
2023-01-19T07:44:15.090Z,97773.30
2023-01-19T07:46:45.518Z,97763.83
2023-01-19T07:49:16.157Z,97758.73
2023-01-19T07:51:46.983Z,97757.96
2023-01-19T07:54:17.433Z,97754.39
2023-01-19T07:56:47.815Z,97748.36
2023-01-19T07:59:18.130Z,97746.11
2023-01-19T08:01:49.244Z,97740.30
2023-01-19T08:04:20.207Z,97742.65
2023-01-19T08:06:50.573Z,97749.15
2023-01-19T08:09:21.191Z,97746.82
2023-01-19T08:11:51.495Z,97745.31
2023-01-19T08:14:21.685Z,97744.04
2023-01-19T08:16:51.025Z,97746.05
2023-01-19T08:19:21.788Z,97738.95
2023-01-19T08:21:52.146Z,97734.73
2023-01-19T08:24:25.689Z,97734.34
2023-01-19T08:27:03.495Z,97730.88
2023-01-19T08:29:35.343Z,97727.11
2023-01-19T08:32:07.256Z,97723.34
2023-01-19T08:34:37.917Z,97717.30
2023-01-19T08:37:08.437Z,97716.60
2023-01-19T08:39:38.765Z,97711.79
2023-01-19T08:42:09.695Z,97712.60
2023-01-19T08:44:49.678Z,97708.73
2023-01-19T08:47:27.920Z,97701.48
2023-01-19T08:49:58.732Z,97700.55
2023-01-19T08:52:30.530Z,97690.27
2023-01-19T08:55:01.571Z,97685.98
2023-01-19T08:57:32.019Z,97683.00
2023-01-19T09:00:04.487Z,97676.33
2023-01-19T09:02:35.461Z,97673.36
2023-01-19T09:05:07.338Z,97671.41
2023-01-19T09:07:38.115Z,97671.31
2023-01-19T09:10:11.416Z,97668.34
2023-01-19T09:12:43.539Z,97663.59
2023-01-19T09:15:15.079Z,97660.92
2023-01-19T09:17:45.464Z,97658.25
2023-01-19T09:20:15.351Z,97659.99
2023-01-19T09:22:47.322Z,97654.05
2023-01-19T09:25:17.879Z,97651.19
2023-01-19T09:27:48.278Z,97651.82
2023-01-19T09:30:19.804Z,97645.98
2023-01-19T09:32:50.266Z,97644.98
2023-01-19T09:35:21.788Z,97643.59
2023-01-19T09:37:52.515Z,97644.29
2023-01-19T09:40:23.073Z,97634.69
2023-01-19T09:42:59.071Z,97633.04
2023-01-19T09:45:35.468Z,97622.39
2023-01-19T09:48:11.611Z,97627.59
2023-01-19T09:50:46.469Z,97624.07
2023-01-19T09:53:21.293Z,97622.96
2023-01-19T09:55:51.700Z,97617.86
2023-01-19T09:58:21.366Z,97616.37
2023-01-19T10:00:56.340Z,97621.07
2023-01-19T10:03:27.441Z,97613.91
2023-01-19T10:06:03.314Z,97613.64
2023-01-19T10:08:38.604Z,97604.15
2023-01-19T10:11:18.288Z,97599.42
2023-01-19T10:13:52.126Z,97600.91
2023-01-19T10:16:31.374Z,97602.52
2023-01-19T10:19:12.201Z,97601.50
2023-01-19T10:21:44.161Z,97603.38
2023-01-19T10:24:20.430Z,97603.35
2023-01-19T10:26:52.628Z,97607.25
2023-01-19T10:29:25.108Z,97604.15
2023-01-19T10:32:02.296Z,97607.91
2023-01-19T10:34:33.429Z,97606.17
2023-01-19T10:37:06.492Z,97610.71
2023-01-19T10:39:38.736Z,97606.08
2023-01-19T10:42:16.100Z,97606.13
2023-01-19T10:44:46.975Z,97606.80
2023-01-19T10:47:19.038Z,97607.89
2023-01-19T10:49:50.427Z,97609.47
2023-01-19T10:52:28.682Z,97607.41
2023-01-19T10:54:59.852Z,97611.11
2023-01-19T10:57:33.067Z,97609.43
2023-01-19T11:00:04.899Z,97609.66
2023-01-19T11:02:36.289Z,97608.41
2023-01-19T11:05:23.629Z,97607.06
2023-01-19T11:07:54.176Z,97606.37
2023-01-19T11:10:26.507Z,97607.25
2023-01-19T11:13:07.366Z,97603.79
2023-01-19T11:15:43.654Z,97605.88
2023-01-19T11:18:28.111Z,97606.81
2023-01-19T11:21:00.829Z,97604.89
2023-01-19T11:23:33.599Z,97610.36
2023-01-19T11:26:06.890Z,97612.19
2023-01-19T11:28:38.636Z,97611.52
2023-01-19T11:31:20.411Z,97614.44
2023-01-19T11:33:52.702Z,97613.53
2023-01-19T11:36:24.942Z,97612.50
2023-01-19T11:38:57.555Z,97610.90
2023-01-19T11:41:31.082Z,97613.77
2023-01-19T11:44:10.527Z,97613.90
2023-01-19T11:46:44.079Z,97619.03
2023-01-19T11:49:19.886Z,97616.11
2023-01-19T11:51:57.410Z,97617.34
2023-01-19T11:54:34.891Z,97617.95
2023-01-19T11:57:13.370Z,97620.95
2023-01-19T11:59:43.731Z,97618.20
2023-01-19T12:02:22.323Z,97618.58
2023-01-19T12:04:54.998Z,97618.59
2023-01-19T12:07:29.602Z,97622.52
2023-01-19T12:10:15.243Z,97622.40
2023-01-19T12:12:46.591Z,97623.60
2023-01-19T12:15:36.290Z,97619.55
2023-01-19T12:18:13.739Z,97625.74
2023-01-19T12:20:47.249Z,97624.59
2023-01-19T12:23:26.338Z,97625.64
2023-01-19T12:26:07.258Z,97624.44
2023-01-19T12:28:40.251Z,97631.84
2023-01-19T12:31:11.295Z,97629.02
2023-01-19T12:33:42.255Z,97636.67
2023-01-19T12:36:36.645Z,97639.44
2023-01-19T12:39:19.462Z,97645.17
2023-01-19T12:41:50.948Z,97644.10
2023-01-19T12:44:31.235Z,97647.64
2023-01-19T12:47:19.733Z,97651.27
2023-01-19T12:49:52.554Z,97648.94
2023-01-19T12:52:27.866Z,97653.98
2023-01-19T12:55:02.787Z,97657.36
2023-01-19T12:57:34.960Z,97655.40
2023-01-19T13:00:08.291Z,97655.23
2023-01-19T13:02:46.953Z,97659.64
2023-01-19T13:05:24.077Z,97662.12
2023-01-19T13:08:19.414Z,97663.50
2023-01-19T13:11:16.215Z,97668.41
2023-01-19T13:14:04.987Z,97668.02
2023-01-19T13:17:02.074Z,97673.13
2023-01-19T13:19:42.463Z,97679.82
2023-01-19T13:23:02.394Z,97679.73
2023-01-19T13:25:35.964Z,97684.89
2023-01-19T13:28:12.592Z,97685.40
2023-01-19T13:31:03.341Z,97684.63
2023-01-19T13:33:41.237Z,97688.32
2023-01-19T13:36:21.117Z,97690.17
2023-01-19T13:38:52.577Z,97691.90
2023-01-19T13:41:26.974Z,97694.02
2023-01-19T13:44:01.877Z,97694.33
2023-01-19T13:46:33.621Z,97697.42
2023-01-19T13:49:10.503Z,97696.02
2023-01-19T13:51:40.803Z,97698.98
2023-01-19T13:54:17.464Z,97696.77
2023-01-19T13:56:50.474Z,97699.17
2023-01-19T13:59:21.056Z,97699.91
2023-01-19T14:01:54.455Z,97701.45
2023-01-19T14:04:30.392Z,97706.49
2023-01-19T14:07:02.756Z,97709.39
2023-01-19T14:09:33.393Z,97710.80
2023-01-19T14:12:10.494Z,97715.26
2023-01-19T14:14:41.056Z,97716.87
2023-01-19T14:17:23.830Z,97723.66
2023-01-19T14:19:55.491Z,97727.10
2023-01-19T14:22:40.773Z,97729.83
2023-01-19T14:25:30.939Z,97735.16
2023-01-19T14:28:28.671Z,97737.77
2023-01-19T14:31:00.656Z,97743.33
2023-01-19T14:33:42.011Z,97744.85
2023-01-19T14:36:24.061Z,97751.13
2023-01-19T14:38:55.398Z,97754.86
2023-01-19T14:41:30.186Z,97756.60
2023-01-19T14:44:01.899Z,97759.20
2023-01-19T14:46:32.639Z,97765.83
2023-01-19T14:49:05.463Z,97765.12
2023-01-19T14:51:36.631Z,97767.79
2023-01-19T14:54:12.794Z,97773.02
2023-01-19T14:56:44.663Z,97774.39
2023-01-19T14:59:15.561Z,97779.88
2023-01-19T15:01:46.530Z,97780.69
2023-01-19T15:04:15.583Z,97782.40
2023-01-19T15:06:47.027Z,97783.14
2023-01-19T15:09:17.788Z,97784.20
2023-01-19T15:11:49.038Z,97794.59
2023-01-19T15:14:21.868Z,97793.25
2023-01-19T15:16:52.401Z,97799.02
2023-01-19T15:19:22.782Z,97803.70
2023-01-19T15:21:59.920Z,97805.55
2023-01-19T15:24:30.666Z,97803.69
2023-01-19T15:27:02.376Z,97806.52
2023-01-19T15:29:33.873Z,97809.52
2023-01-19T15:32:04.580Z,97814.31
2023-01-19T15:34:37.591Z,97819.27
2023-01-19T15:37:08.525Z,97821.91
2023-01-19T15:39:39.750Z,97825.42
2023-01-19T15:42:15.792Z,97828.98
2023-01-19T15:44:46.187Z,97828.29
2023-01-19T15:47:16.728Z,97832.23
2023-01-19T15:49:47.841Z,97833.83
2023-01-19T15:52:19.216Z,97829.69
2023-01-19T15:54:52.032Z,97831.49
2023-01-19T15:57:25.314Z,97832.84
2023-01-19T15:59:59.267Z,97834.92
2023-01-19T16:02:34.130Z,97836.55
2023-01-19T16:05:05.000Z,97843.33
2023-01-19T16:07:36.211Z,97843.84
2023-01-19T16:10:09.348Z,97846.36
2023-01-19T16:12:40.062Z,97851.58
2023-01-19T16:15:12.723Z,97855.59
2023-01-19T16:17:44.567Z,97855.45
2023-01-19T16:20:15.849Z,97861.59
2023-01-19T16:22:46.430Z,97861.61
2023-01-19T16:25:17.903Z,97864.52
2023-01-19T16:27:48.312Z,97870.30
2023-01-19T16:30:19.725Z,97873.29
2023-01-19T16:32:50.259Z,97873.95
2023-01-19T16:35:20.655Z,97872.63
2023-01-19T16:37:52.924Z,97875.42
2023-01-19T16:40:23.624Z,97881.70
2023-01-19T16:42:54.431Z,97881.80
2023-01-19T16:45:25.073Z,97884.58
2023-01-19T16:47:55.747Z,97886.80
2023-01-19T16:50:26.322Z,97890.85
2023-01-19T16:53:05.076Z,97889.79
2023-01-19T16:55:45.118Z,97891.23
2023-01-19T16:58:17.195Z,97890.79
2023-01-19T17:00:47.946Z,97888.84
2023-01-19T17:03:18.563Z,97890.65
2023-01-19T17:05:58.279Z,97890.02
2023-01-19T17:08:28.815Z,97893.55
2023-01-19T17:11:02.861Z,97898.70
2023-01-19T17:13:33.902Z,97901.42
2023-01-19T17:16:05.749Z,97900.61
2023-01-19T17:18:38.811Z,97905.52
2023-01-19T17:21:10.863Z,97913.55
2023-01-19T17:23:45.342Z,97918.68
2023-01-19T17:26:16.678Z,97921.35
2023-01-19T17:28:48.665Z,97922.72
2023-01-19T17:31:21.118Z,97930.53
2023-01-19T17:33:51.999Z,97932.35
2023-01-19T17:36:25.353Z,97930.04
2023-01-19T17:38:58.718Z,97931.90
2023-01-19T17:41:31.026Z,97935.34
2023-01-19T17:44:03.495Z,97941.83
2023-01-19T17:46:37.236Z,97944.64
2023-01-19T17:49:08.702Z,97946.23
2023-01-19T17:51:39.115Z,97951.15
2023-01-19T17:54:10.606Z,97949.45
2023-01-19T17:56:41.510Z,97949.62
2023-01-19T17:59:12.912Z,97948.20
2023-01-19T18:01:45.263Z,97946.46
2023-01-19T18:04:16.754Z,97952.23
2023-01-19T18:06:49.839Z,97952.16
2023-01-19T18:09:22.121Z,97952.23
2023-01-19T18:11:54.929Z,97952.46
2023-01-19T18:14:26.103Z,97951.34
2023-01-19T18:16:57.492Z,97949.48
2023-01-19T18:19:29.196Z,97949.77
2023-01-19T18:21:59.608Z,97952.56
2023-01-19T18:24:30.330Z,97954.84
2023-01-19T18:27:04.825Z,97960.27
2023-01-19T18:29:36.897Z,97962.55
2023-01-19T18:32:08.419Z,97965.28
2023-01-19T18:34:40.960Z,97962.04
2023-01-19T18:37:15.393Z,97961.58
2023-01-19T18:39:46.225Z,97966.36
2023-01-19T18:42:16.846Z,97971.94
2023-01-19T18:44:47.502Z,97972.71
2023-01-19T18:47:18.038Z,97977.18
2023-01-19T18:49:48.820Z,97982.90
2023-01-19T18:52:19.478Z,97982.73
2023-01-19T18:54:50.830Z,97988.15
2023-01-19T18:57:21.629Z,97991.80
2023-01-19T18:59:53.015Z,97999.02
2023-01-19T19:02:24.149Z,97995.78
2023-01-19T19:04:54.382Z,98000.45
2023-01-19T19:07:27.462Z,98003.98
2023-01-19T19:09:57.936Z,98003.71
2023-01-19T19:12:28.800Z,98003.98
2023-01-19T19:14:59.290Z,98006.98
2023-01-19T19:17:31.493Z,98005.22
2023-01-19T19:20:02.623Z,98005.27
2023-01-19T19:22:32.006Z,98003.31
2023-01-19T19:25:02.806Z,98005.74
2023-01-19T19:27:33.461Z,98005.86
2023-01-19T19:30:04.698Z,98010.73
2023-01-19T19:32:35.362Z,98009.27
2023-01-19T19:35:08.050Z,98011.95
2023-01-19T19:37:38.393Z,98016.16
2023-01-19T19:40:11.713Z,98018.27
2023-01-19T19:42:44.520Z,98020.98
2023-01-19T19:45:15.494Z,98025.44
2023-01-19T19:47:46.129Z,98028.35
2023-01-19T19:50:17.598Z,98029.81
2023-01-19T19:52:49.735Z,98032.15
2023-01-19T19:55:20.423Z,98037.08
2023-01-19T19:57:51.047Z,98036.14
2023-01-19T20:00:22.524Z,98037.08
2023-01-19T20:02:53.534Z,98036.65
2023-01-19T20:05:24.660Z,98033.12
2023-01-19T20:07:54.989Z,98035.18
2023-01-19T20:10:26.539Z,98037.19
2023-01-19T20:12:56.911Z,98038.52
2023-01-19T20:15:29.340Z,98038.52
2023-01-19T20:18:00.210Z,98039.20
2023-01-19T20:20:30.480Z,98038.71
2023-01-19T20:23:01.371Z,98038.35
2023-01-19T20:25:31.635Z,98037.41
2023-01-19T20:28:02.604Z,98034.55
2023-01-19T20:30:33.964Z,98034.70
2023-01-19T20:33:05.068Z,98037.36
2023-01-19T20:35:35.832Z,98038.79
2023-01-19T20:38:09.316Z,98036.93
2023-01-19T20:40:40.786Z,98034.15
2023-01-19T20:43:12.754Z,98032.41
2023-01-19T20:45:44.339Z,98028.11
2023-01-19T20:48:15.047Z,98028.67
2023-01-19T20:50:45.314Z,98034.10
2023-01-19T20:53:16.322Z,98027.39
2023-01-19T20:55:46.936Z,98024.59
2023-01-19T20:58:17.938Z,98019.41
2023-01-19T21:00:48.442Z,98016.65
2023-01-19T21:03:20.020Z,98020.57
2023-01-19T21:05:50.394Z,98020.13
2023-01-19T21:08:20.889Z,98020.27
2023-01-19T21:10:51.524Z,98025.99
2023-01-19T21:13:22.500Z,98028.31
2023-01-19T21:15:51.712Z,98024.04
2023-01-19T21:18:22.376Z,98020.67
2023-01-19T21:20:53.018Z,98019.48
2023-01-19T21:23:23.488Z,98017.66
2023-01-19T21:25:56.127Z,98016.44
2023-01-19T21:28:27.169Z,98014.40
2023-01-19T21:30:58.071Z,98019.11
2023-01-19T21:33:28.499Z,98021.50
2023-01-19T21:35:59.561Z,98020.94
2023-01-19T21:38:30.468Z,98020.42
2023-01-19T21:41:05.269Z,98019.39
2023-01-19T21:43:38.645Z,98023.89
2023-01-19T21:46:13.478Z,98024.20
2023-01-19T21:48:46.945Z,98027.28
2023-01-19T21:51:17.851Z,98023.27
2023-01-19T21:53:47.293Z,98029.71
2023-01-19T21:56:18.000Z,98024.63
2023-01-19T21:58:48.425Z,98023.88
2023-01-19T22:01:19.469Z,98021.00
2023-01-19T22:03:48.542Z,98021.77
2023-01-19T22:06:19.582Z,98021.75
2023-01-19T22:08:50.004Z,98023.47
2023-01-19T22:11:21.434Z,98024.10
2023-01-19T22:13:52.053Z,98024.13
2023-01-19T22:16:22.136Z,98025.17
2023-01-19T22:18:56.026Z,98023.34
2023-01-19T22:21:27.207Z,98021.56
2023-01-19T22:23:59.972Z,98028.10
2023-01-19T22:26:31.651Z,98025.61
2023-01-19T22:29:03.148Z,98022.89
2023-01-19T22:31:33.598Z,98014.80
2023-01-19T22:34:04.016Z,98011.21
2023-01-19T22:36:34.765Z,98014.03
2023-01-19T22:39:06.894Z,98013.77
2023-01-19T22:41:39.274Z,98016.48
2023-01-19T22:44:14.113Z,98014.09
2023-01-19T22:46:46.329Z,98016.09
2023-01-19T22:49:17.539Z,98016.02
2023-01-19T22:51:48.424Z,98015.31
2023-01-19T22:54:17.634Z,98018.11
2023-01-19T22:56:48.164Z,98016.00
2023-01-19T22:59:18.767Z,98021.80
2023-01-19T23:01:51.254Z,98023.91
2023-01-19T23:04:21.767Z,98025.23
2023-01-19T23:06:53.208Z,98021.40
2023-01-19T23:09:23.966Z,98023.19
2023-01-19T23:11:54.216Z,98025.39
2023-01-19T23:14:24.682Z,98026.38
2023-01-19T23:16:57.917Z,98027.89
2023-01-19T23:19:28.187Z,98030.27
2023-01-19T23:21:58.723Z,98025.66
2023-01-19T23:24:30.200Z,98026.90
2023-01-19T23:27:02.276Z,98023.80
2023-01-19T23:29:32.679Z,98024.02
2023-01-19T23:32:03.417Z,98023.96
2023-01-19T23:34:34.245Z,98015.28
2023-01-19T23:37:05.112Z,98015.36
2023-01-19T23:39:34.133Z,98013.73
2023-01-19T23:42:05.348Z,98019.95
2023-01-19T23:44:34.289Z,98020.58
2023-01-19T23:47:04.799Z,98019.77
2023-01-19T23:49:34.950Z,98014.90
2023-01-19T23:52:05.600Z,98017.84
2023-01-19T23:54:36.420Z,98014.92
2023-01-19T23:57:06.660Z,98013.01
2023-01-19T23:59:37.051Z,98014.21
